Time;durP1;ratioP1;P1;durP2;ratioP2;P2;SDS_P1;SDS_P2;PMS_P1;PMS_P2;Temp;Humidity;BMP_temperature;BMP_pressure;BME280_temperature;BME280_humidity;BME280_pressure;Samples;Min_cycle;Max_cycle;Signal;HPM_P1;HPM_P2
2021/04/05 00:00:36;;;;;;;58.60;32.72;;;6.30;54.80;;;;;;5027295;28;20409;-69
2021/04/05 00:03:02;;;;;;;59.80;31.07;;;6.30;54.60;;;;;;5010501;28;20935;-69
2021/04/05 00:05:35;;;;;;;62.43;32.10;;;6.30;55.00;;;;;;5011460;28;20383;-68
2021/04/05 00:08:00;;;;;;;63.90;32.67;;;6.30;55.90;;;;;;5020974;28;20379;-70
2021/04/05 00:10:29;;;;;;;60.78;33.20;;;6.30;54.90;;;;;;5011355;28;20396;-70
2021/04/05 00:12:58;;;;;;;61.25;31.63;;;6.20;56.50;;;;;;5011395;28;20450;-69
2021/04/05 00:15:24;;;;;;;54.15;31.73;;;6.30;55.10;;;;;;5009838;28;20392;-69
2021/04/05 00:17:49;;;;;;;68.43;33.40;;;6.40;55.00;;;;;;5009516;28;20750;-69
2021/04/05 00:20:38;;;;;;;60.97;31.23;;;6.40;55.00;;;;;;5011084;28;20858;-70
2021/04/05 00:23:04;;;;;;;54.33;31.85;;;6.40;55.70;;;;;;5010630;28;20396;-69
2021/04/05 00:25:30;;;;;;;60.35;31.00;;;6.40;55.40;;;;;;5011107;28;20484;-70
2021/04/05 00:27:56;;;;;;;54.17;30.13;;;6.30;55.50;;;;;;5010733;28;20471;-69
2021/04/05 00:30:30;;;;;;;55.80;29.77;;;6.40;55.50;;;;;;5021944;28;20462;-69
2021/04/05 00:32:56;;;;;;;59.08;30.02;;;6.50;56.30;;;;;;5006033;28;20408;-70
2021/04/05 00:35:24;;;;;;;56.57;29.27;;;6.60;54.50;;;;;;5011060;28;20389;-71
2021/04/05 00:37:51;;;;;;;56.20;27.92;;;6.50;55.20;;;;;;5010546;28;20400;-70
2021/04/05 00:40:20;;;;;;;54.58;29.15;;;6.60;53.90;;;;;;5010855;28;20762;-70
2021/04/05 00:42:47;;;;;;;61.90;29.40;;;6.60;55.60;;;;;;5010674;28;20471;-69
2021/04/05 00:45:15;;;;;;;56.97;29.45;;;6.60;53.90;;;;;;5010892;28;20388;-69
2021/04/05 00:47:43;;;;;;;50.70;27.70;;;6.60;53.90;;;;;;5010572;28;20929;-69
2021/04/05 00:50:18;;;;;;;47.92;26.73;;;6.60;53.50;;;;;;5010451;28;20415;-70
2021/04/05 00:52:46;;;;;;;46.65;26.90;;;6.60;53.50;;;;;;4999033;28;20446;-70
2021/04/05 00:55:13;;;;;;;50.78;27.58;;;6.60;54.60;;;;;;5010891;28;20405;-70
2021/04/05 00:57:38;;;;;;;56.47;28.15;;;6.60;53.70;;;;;;5016151;28;20439;-68
2021/04/05 01:00:13;;;;;;;54.40;26.45;;;6.70;52.80;;;;;;5030630;28;20435;-69
2021/04/05 01:02:39;;;;;;;52.75;26.38;;;6.70;53.00;;;;;;5011072;28;20401;-68
2021/04/05 01:05:05;;;;;;;46.80;25.65;;;6.60;53.30;;;;;;5010624;28;20908;-69
2021/04/05 01:07:31;;;;;;;47.67;25.90;;;6.60;53.50;;;;;;5015598;28;20502;-70
2021/04/05 01:09:57;;;;;;;51.42;24.83;;;6.60;54.40;;;;;;5019486;28;20416;-69
2021/04/05 01:12:23;;;;;;;47.37;24.07;;;6.60;54.90;;;;;;5010622;28;20451;-69
2021/04/05 01:14:48;;;;;;;49.47;24.80;;;6.70;54.80;;;;;;5011168;28;20727;-69
2021/04/05 01:17:14;;;;;;;47.70;25.42;;;6.70;54.10;;;;;;5014341;28;20447;-70
2021/04/05 01:19:39;;;;;;;51.58;24.13;;;6.60;54.40;;;;;;5014531;28;20405;-70
2021/04/05 01:22:06;;;;;;;46.60;25.13;;;6.70;55.20;;;;;;5014240;28;20413;-70
2021/04/05 01:24:32;;;;;;;46.78;22.80;;;6.70;54.60;;;;;;5012806;28;20397;-70
2021/04/05 01:26:57;;;;;;;48.70;23.90;;;6.80;54.40;;;;;;5014282;28;20387;-70
2021/04/05 01:29:24;;;;;;;42.83;23.30;;;6.80;53.60;;;;;;5037716;23;20497;-74
2021/04/05 01:31:50;;;;;;;50.17;25.13;;;6.80;54.20;;;;;;5034934;28;20944;-74
2021/04/05 01:34:16;;;;;;;44.47;23.90;;;6.70;54.40;;;;;;5034685;28;20387;-73
2021/04/05 01:36:42;;;;;;;56.63;25.93;;;6.70;55.20;;;;;;5033426;28;20383;-75
2021/04/05 01:39:07;;;;;;;43.78;24.65;;;6.80;54.60;;;;;;5034686;28;20498;-74
2021/04/05 01:41:33;;;;;;;49.17;25.60;;;6.80;53.70;;;;;;5034517;28;20445;-74
2021/04/05 01:44:00;;;;;;;48.78;26.75;;;6.80;53.70;;;;;;5034079;28;20401;-73
2021/04/05 01:46:28;;;;;;;52.42;25.35;;;6.90;54.40;;;;;;5034973;28;20411;-74
2021/04/05 01:48:58;;;;;;;54.67;26.85;;;6.90;53.70;;;;;;5035866;28;20376;-75
2021/04/05 01:51:24;;;;;;;57.72;26.23;;;6.90;54.60;;;;;;5018045;28;20387;-74
2021/04/05 01:53:51;;;;;;;55.42;28.55;;;6.90;53.50;;;;;;5022678;28;20403;-74
2021/04/05 01:56:18;;;;;;;54.15;28.63;;;6.80;54.50;;;;;;5034446;28;20444;-74
2021/04/05 01:58:47;;;;;;;60.30;28.55;;;6.80;54.30;;;;;;5021857;28;20399;-74
2021/04/05 02:01:15;;;;;;;61.47;29.58;;;6.90;54.20;;;;;;5034154;28;20479;-74
2021/04/05 02:03:41;;;;;;;63.17;30.42;;;6.90;53.60;;;;;;5033577;28;20401;-74
2021/04/05 02:06:15;;;;;;;62.70;30.73;;;6.80;54.10;;;;;;5034405;28;20399;-75
2021/04/05 02:08:42;;;;;;;58.47;29.48;;;6.80;54.50;;;;;;5047004;28;20385;-74
2021/04/05 02:11:14;;;;;;;61.47;30.00;;;6.80;54.00;;;;;;5038945;28;20395;-75
2021/04/05 02:13:41;;;;;;;58.85;30.02;;;6.80;54.70;;;;;;5027917;28;20419;-76
2021/04/05 02:16:07;;;;;;;60.55;30.65;;;6.80;54.80;;;;;;5042156;28;20383;-75
2021/04/05 02:18:36;;;;;;;60.13;30.55;;;6.80;54.70;;;;;;5022649;28;20399;-75
2021/04/05 02:21:01;;;;;;;63.87;31.40;;;6.90;54.30;;;;;;5019417;28;20398;-75
2021/04/05 02:23:27;;;;;;;63.90;31.42;;;6.90;54.70;;;;;;5037055;28;20402;-76
2021/04/05 02:26:12;;;;;;;66.32;32.28;;;6.90;53.50;;;;;;5036109;28;20387;-74
2021/04/05 02:28:49;;;;;;;65.70;33.17;;;6.90;53.90;;;;;;5037153;28;20844;-75
2021/04/05 02:31:19;;;;;;;68.00;34.25;;;6.90;53.90;;;;;;5056782;28;20877;-76
2021/04/05 02:33:51;;;;;;;67.60;34.37;;;6.90;54.00;;;;;;5045143;28;20894;-74
2021/04/05 02:36:19;;;;;;;68.20;34.95;;;6.90;54.30;;;;;;5033602;28;20922;-74
2021/04/05 02:38:50;;;;;;;72.80;33.67;;;7.00;53.50;;;;;;5032159;28;20383;-74
2021/04/05 02:41:18;;;;;;;66.87;32.40;;;6.90;53.70;;;;;;5019409;28;20482;-74
2021/04/05 02:43:44;;;;;;;60.45;32.55;;;7.00;53.60;;;;;;5021797;28;20410;-74
2021/04/05 02:46:19;;;;;;;78.40;33.55;;;7.00;53.00;;;;;;5034407;28;20489;-74
2021/04/05 02:48:49;;;;;;;65.80;33.30;;;7.00;53.30;;;;;;5029113;28;20811;-74
2021/04/05 02:51:15;;;;;;;62.70;31.13;;;6.90;54.50;;;;;;5032813;28;20379;-74
2021/04/05 02:53:50;;;;;;;59.42;31.05;;;7.00;53.70;;;;;;5032021;28;20467;-74
2021/04/05 02:56:17;;;;;;;63.55;29.73;;;7.00;53.70;;;;;;5016549;28;20399;-75
2021/04/05 02:58:45;;;;;;;59.78;30.50;;;7.10;53.60;;;;;;5032543;28;20383;-75
2021/04/05 03:01:12;;;;;;;62.42;31.40;;;7.00;54.30;;;;;;5032892;28;20419;-74
2021/04/05 03:03:39;;;;;;;59.20;28.83;;;6.90;54.70;;;;;;5020746;28;20398;-73
2021/04/05 03:06:07;;;;;;;61.53;30.30;;;7.00;53.70;;;;;;5051261;28;20527;-73
2021/04/05 03:08:33;;;;;;;57.47;28.50;;;7.00;53.70;;;;;;5042309;28;20478;-74
2021/04/05 03:10:59;;;;;;;55.22;27.10;;;6.90;55.30;;;;;;5032582;28;20403;-73
2021/04/05 03:13:26;;;;;;;58.17;27.25;;;6.80;55.80;;;;;;5032887;28;20448;-74
2021/04/05 03:15:54;;;;;;;57.85;26.30;;;6.80;56.60;;;;;;5032685;28;20755;-74
2021/04/05 03:18:21;;;;;;;50.10;26.88;;;6.80;56.60;;;;;;5034098;28;20778;-74
2021/04/05 03:20:48;;;;;;;48.50;25.95;;;6.80;56.70;;;;;;5033993;28;20403;-74
2021/04/05 03:23:21;;;;;;;57.10;24.73;;;7.00;55.20;;;;;;5033006;28;20406;-75
2021/04/05 03:25:46;;;;;;;51.78;26.15;;;7.10;54.20;;;;;;5033134;28;20493;-74
2021/04/05 03:28:12;;;;;;;54.75;26.02;;;7.10;54.40;;;;;;5035268;28;20395;-74
2021/04/05 03:30:43;;;;;;;53.42;25.20;;;7.20;53.70;;;;;;5046367;28;20396;-75
2021/04/05 03:33:16;;;;;;;55.28;23.85;;;7.30;52.10;;;;;;5051293;28;20519;-75
2021/04/05 03:35:45;;;;;;;44.25;22.42;;;7.40;51.50;;;;;;5033698;28;20414;-75
2021/04/05 03:38:15;;;;;;;50.33;23.73;;;7.40;51.20;;;;;;5032216;28;20402;-74
2021/04/05 03:40:42;;;;;;;45.45;23.60;;;7.40;51.00;;;;;;5032200;28;20983;-75
2021/04/05 03:43:15;;;;;;;50.65;23.70;;;7.50;51.10;;;;;;5020484;28;20395;-74
2021/04/05 03:45:45;;;;;;;47.17;21.45;;;7.50;50.60;;;;;;5042897;28;20398;-77
2021/04/05 03:48:43;;;;;;;43.37;22.27;;;7.50;50.30;;;;;;5043141;28;20383;-76
2021/04/05 03:51:18;;;;;;;47.70;22.90;;;7.50;50.20;;;;;;5044802;28;20391;-76
2021/04/05 03:53:54;;;;;;;46.90;22.40;;;7.60;50.00;;;;;;5044640;28;20952;-76
2021/04/05 03:56:25;;;;;;;47.45;22.77;;;7.60;50.30;;;;;;5045498;28;20445;-78
2021/04/05 03:58:53;;;;;;;43.27;20.97;;;7.60;50.40;;;;;;5057105;28;20891;-76
2021/04/05 04:01:23;;;;;;;45.20;21.83;;;7.60;50.20;;;;;;5061873;28;20382;-77
2021/04/05 04:04:13;;;;;;;45.30;21.80;;;7.60;51.10;;;;;;5054242;28;20835;-76
2021/04/05 04:09:07;;;;;;;42.72;21.33;;;7.60;50.20;;;;;;5059750;28;20554;-75
2021/04/05 04:11:36;;;;;;;45.97;20.55;;;7.60;50.20;;;;;;5024646;28;20392;-75
2021/04/05 04:14:04;;;;;;;41.30;21.30;;;7.60;50.60;;;;;;5031058;28;20434;-75
2021/04/05 04:16:30;;;;;;;49.90;21.70;;;7.60;51.50;;;;;;5038888;28;20423;-76
2021/04/05 04:19:03;;;;;;;53.75;22.48;;;7.50;51.30;;;;;;5034050;28;20414;-76
2021/04/05 04:21:29;;;;;;;43.33;21.45;;;7.50;51.80;;;;;;5019130;28;20445;-76
2021/04/05 04:24:00;;;;;;;48.65;21.05;;;7.50;51.80;;;;;;5035337;28;20414;-75
2021/04/05 04:26:26;;;;;;;50.88;22.70;;;7.50;52.30;;;;;;5033630;28;20806;-76
2021/04/05 04:28:51;;;;;;;54.60;22.38;;;7.50;52.70;;;;;;5033545;28;20442;-76
2021/04/05 04:31:20;;;;;;;49.60;21.80;;;7.50;53.10;;;;;;5043606;28;20395;-76
2021/04/05 04:33:47;;;;;;;49.85;21.90;;;7.40;53.00;;;;;;5033224;28;20391;-76
2021/04/05 04:36:13;;;;;;;46.30;21.77;;;7.40;54.00;;;;;;5033705;28;20464;-76
2021/04/05 04:38:40;;;;;;;48.92;22.08;;;7.40;54.60;;;;;;5036972;28;20472;-76
2021/04/05 04:41:05;;;;;;;50.08;21.70;;;7.40;54.00;;;;;;5034495;28;20395;-76
2021/04/05 04:43:31;;;;;;;42.80;22.35;;;7.30;54.90;;;;;;5036328;28;20421;-76
2021/04/05 04:45:57;;;;;;;46.40;22.38;;;7.40;54.50;;;;;;5039455;28;20383;-76
2021/04/05 04:48:22;;;;;;;42.60;22.20;;;7.40;54.90;;;;;;5037113;28;20891;-76
2021/04/05 04:50:48;;;;;;;50.90;22.08;;;7.40;55.10;;;;;;5036026;28;20403;-76
2021/04/05 04:53:13;;;;;;;46.30;23.13;;;7.40;55.10;;;;;;5036885;28;20387;-76
2021/04/05 04:55:40;;;;;;;54.90;24.07;;;7.40;55.00;;;;;;5036045;28;20387;-76
2021/04/05 04:58:06;;;;;;;49.17;23.63;;;7.40;56.00;;;;;;5044459;28;20389;-75
2021/04/05 05:00:33;;;;;;;47.17;23.02;;;7.40;55.70;;;;;;5056050;28;20839;-75
2021/04/05 05:03:01;;;;;;;47.45;22.42;;;7.40;55.80;;;;;;5040865;28;20426;-75
2021/04/05 05:05:34;;;;;;;49.33;21.90;;;7.50;55.60;;;;;;5040386;28;20483;-75
2021/04/05 05:08:00;;;;;;;53.20;22.00;;;7.50;56.00;;;;;;5038472;28;20742;-74
2021/04/05 05:10:26;;;;;;;43.25;22.30;;;7.50;55.00;;;;;;5040375;28;20402;-76
2021/04/05 05:12:52;;;;;;;55.20;23.48;;;7.50;55.70;;;;;;5043258;28;20398;-75
2021/04/05 05:15:17;;;;;;;50.03;22.07;;;7.50;56.20;;;;;;5043363;28;20439;-75
2021/04/05 05:17:45;;;;;;;47.13;23.02;;;7.60;56.20;;;;;;5041486;28;20403;-76
2021/04/05 05:20:15;;;;;;;48.22;22.83;;;7.50;56.40;;;;;;5042464;28;20414;-76
2021/04/05 05:22:44;;;;;;;48.88;23.58;;;7.50;56.90;;;;;;5041019;28;20383;-76
2021/04/05 05:25:14;;;;;;;47.95;23.48;;;7.50;56.90;;;;;;5036988;28;20379;-75
2021/04/05 05:27:42;;;;;;;54.90;24.80;;;7.50;58.00;;;;;;5037699;28;20836;-74
2021/04/05 05:30:10;;;;;;;54.72;24.75;;;7.50;57.70;;;;;;5042194;28;20406;-74
2021/04/05 05:32:36;;;;;;;50.13;24.98;;;7.50;57.80;;;;;;5035395;28;20387;-75
2021/04/05 05:35:03;;;;;;;51.33;24.42;;;7.50;58.30;;;;;;5035677;28;20398;-75
2021/04/05 05:37:29;;;;;;;48.43;24.27;;;7.40;59.60;;;;;;5037507;28;20406;-74
2021/04/05 05:39:55;;;;;;;51.92;24.90;;;7.50;59.30;;;;;;5035245;28;20406;-73
2021/04/05 05:42:40;;;;;;;48.23;24.73;;;7.40;60.00;;;;;;5035232;28;20403;-75
2021/04/05 05:45:07;;;;;;;60.38;24.75;;;7.40;59.50;;;;;;5023692;28;20396;-74
2021/04/05 05:48:03;;;;;;;52.70;25.65;;;7.50;59.50;;;;;;5034699;28;20375;-74
2021/04/05 05:50:32;;;;;;;54.92;26.80;;;7.50;60.30;;;;;;5034299;28;20894;-74
2021/04/05 05:53:04;;;;;;;55.00;26.02;;;7.50;60.70;;;;;;5021262;28;20407;-74
2021/04/05 05:56:07;;;;;;;53.50;25.27;;;7.50;60.70;;;;;;5030770;28;20401;-74
2021/04/05 05:58:50;;;;;;;56.85;25.83;;;7.50;60.90;;;;;;5042378;28;20403;-74
2021/04/05 06:01:34;;;;;;;54.42;24.65;;;7.50;61.20;;;;;;5015075;28;20406;-74
2021/04/05 06:04:25;;;;;;;56.30;26.55;;;7.40;61.80;;;;;;5034275;28;20425;-76
2021/04/05 06:07:02;;;;;;;55.13;26.20;;;7.40;62.50;;;;;;5034694;28;20395;-75
2021/04/05 06:09:40;;;;;;;56.67;25.83;;;7.40;62.40;;;;;;5046991;28;20551;-75
2021/04/05 06:12:14;;;;;;;57.40;25.83;;;7.40;62.90;;;;;;5034205;28;20402;-75
2021/04/05 06:14:54;;;;;;;54.97;25.40;;;7.40;62.40;;;;;;5034187;28;20385;-75
2021/04/05 06:17:31;;;;;;;51.58;26.00;;;7.40;63.40;;;;;;5041742;28;20392;-75
2021/04/05 06:20:15;;;;;;;57.90;26.67;;;7.40;63.40;;;;;;5049481;28;20401;-74
2021/04/05 06:22:48;;;;;;;60.80;27.58;;;7.50;63.70;;;;;;5055690;28;20422;-74
2021/04/05 06:25:23;;;;;;;54.53;26.77;;;7.50;63.60;;;;;;5053166;28;20395;-74
2021/04/05 06:28:00;;;;;;;54.10;27.20;;;7.50;64.80;;;;;;5053611;28;20398;-75
2021/04/05 06:30:34;;;;;;;52.30;26.48;;;7.50;64.40;;;;;;5062285;28;20821;-74
2021/04/05 06:33:27;;;;;;;54.10;26.83;;;7.50;64.50;;;;;;5039889;28;20429;-75
2021/04/05 06:36:10;;;;;;;55.95;28.55;;;7.50;64.60;;;;;;5045307;28;20756;-75
2021/04/05 06:38:48;;;;;;;59.60;27.70;;;7.50;64.80;;;;;;5034729;28;20470;-74
2021/04/05 06:41:53;;;;;;;56.10;26.58;;;7.60;64.20;;;;;;5033805;28;20406;-74
2021/04/05 06:44:41;;;;;;;56.17;26.67;;;7.60;64.00;;;;;;5043891;28;20450;-76
2021/04/05 06:47:19;;;;;;;60.55;28.60;;;7.60;64.50;;;;;;5036481;28;20399;-74
2021/04/05 06:50:09;;;;;;;63.83;28.58;;;7.60;66.30;;;;;;5038220;28;20488;-75
2021/04/05 06:53:12;;;;;;;64.35;29.00;;;7.60;66.70;;;;;;5033483;28;20435;-75
2021/04/05 06:56:02;;;;;;;67.22;29.42;;;7.60;68.20;;;;;;5033503;28;20402;-75
2021/04/05 06:58:46;;;;;;;57.93;27.13;;;7.60;68.00;;;;;;5033819;28;20780;-74
2021/04/05 07:01:24;;;;;;;65.05;29.20;;;7.60;68.50;;;;;;5017903;28;20438;-74
2021/04/05 07:04:23;;;;;;;59.90;29.60;;;7.70;69.20;;;;;;5033333;28;20411;-74
2021/04/05 07:06:50;;;;;;;63.05;29.58;;;7.70;70.50;;;;;;5017199;28;20404;-74
2021/04/05 07:09:30;;;;;;;62.38;29.80;;;7.70;69.70;;;;;;5038449;28;20510;-75
2021/04/05 07:12:33;;;;;;;56.50;28.15;;;7.70;70.20;;;;;;5032481;28;20427;-74
2021/04/05 07:15:32;;;;;;;58.60;28.77;;;7.80;69.60;;;;;;5032936;28;20391;-76
2021/04/05 07:18:32;;;;;;;60.80;29.30;;;7.90;67.70;;;;;;5031556;28;20390;-75
2021/04/05 07:21:16;;;;;;;56.50;29.33;;;8.00;68.60;;;;;;5031776;28;20396;-76
2021/04/05 07:24:02;;;;;;;58.10;28.27;;;7.90;67.80;;;;;;5027251;28;20807;-76
2021/04/05 07:26:57;;;;;;;53.83;29.55;;;7.90;69.20;;;;;;5041103;28;20454;-76
2021/04/05 07:29:32;;;;;;;64.20;30.73;;;7.90;69.50;;;;;;5001664;28;20391;-76
2021/04/05 07:32:15;;;;;;;58.08;29.20;;;7.90;70.00;;;;;;5037842;28;20808;-77
2021/04/05 07:35:06;;;;;;;61.50;30.50;;;8.00;70.00;;;;;;5024291;28;20556;-76
2021/04/05 07:37:53;;;;;;;57.63;29.17;;;7.90;68.80;;;;;;5020948;28;20458;-76
2021/04/05 07:40:40;;;;;;;55.80;28.70;;;7.90;70.70;;;;;;5014887;28;20897;-76
2021/04/05 07:43:45;;;;;;;62.13;28.95;;;7.90;69.30;;;;;;5030839;28;20438;-76
2021/04/05 07:46:11;;;;;;;55.35;29.02;;;7.90;74.00;;;;;;4969510;28;20400;-77
2021/04/05 07:48:41;;;;;;;54.27;27.93;;;7.80;73.50;;;;;;5007507;28;20453;-77
2021/04/05 07:51:30;;;;;;;59.10;26.83;;;7.80;75.80;;;;;;5032548;28;20493;-76
2021/04/05 07:53:58;;;;;;;33.93;17.03;;;7.60;79.40;;;;;;5032285;28;20564;-77
2021/04/05 07:56:36;;;;;;;27.33;13.90;;;7.20;82.20;;;;;;5014939;28;20502;-76
2021/04/05 07:59:23;;;;;;;28.98;10.65;;;7.00;86.90;;;;;;5036558;28;20426;-77
2021/04/05 08:02:09;;;;;;;15.75;6.85;;;6.50;94.00;;;;;;5032242;28;20836;-75
2021/04/05 08:05:10;;;;;;;12.80;6.38;;;6.10;99.80;;;;;;5013996;28;20405;-76
2021/04/05 08:07:45;;;;;;;15.77;5.43;;;5.90;99.90;;;;;;4948964;28;20418;-75
2021/04/05 08:10:18;;;;;;;9.35;5.10;;;5.80;99.90;;;;;;5026427;28;20418;-76
2021/04/05 08:12:53;;;;;;;8.55;4.75;;;5.70;99.90;;;;;;5030920;28;20408;-75
2021/04/05 08:15:42;;;;;;;9.33;4.57;;;5.70;99.90;;;;;;5043230;28;20465;-75
2021/04/05 08:18:22;;;;;;;7.00;3.92;;;5.60;99.90;;;;;;5032594;28;20416;-75
2021/04/05 08:21:07;;;;;;;8.30;4.28;;;5.60;99.90;;;;;;5031494;28;20435;-76
2021/04/05 08:24:10;;;;;;;17.07;7.07;;;5.50;99.90;;;;;;5032722;28;20411;-78
2021/04/05 08:26:42;;;;;;;18.40;6.40;;;5.60;99.90;;;;;;5031215;28;20434;-77
2021/04/05 08:29:28;;;;;;;11.60;5.80;;;5.60;99.90;;;;;;5022143;28;20772;-76
2021/04/05 08:32:18;;;;;;;9.50;5.82;;;5.60;99.90;;;;;;5041184;28;20506;-76
2021/04/05 08:35:18;;;;;;;7.93;3.90;;;5.60;99.90;;;;;;5031217;28;20914;-76
2021/04/05 08:37:59;;;;;;;8.18;3.92;;;5.50;99.90;;;;;;5034176;28;20725;-77
2021/04/05 08:40:30;;;;;;;6.22;3.60;;;5.50;99.90;;;;;;5032876;28;20871;-77
2021/04/05 08:43:08;;;;;;;4.50;2.90;;;5.50;99.90;;;;;;5016103;28;20398;-76
2021/04/05 08:45:57;;;;;;;7.95;3.30;;;5.50;99.90;;;;;;5014062;28;20449;-77
2021/04/05 08:48:27;;;;;;;6.00;2.80;;;5.50;99.90;;;;;;5048005;28;20801;-76
2021/04/05 08:51:00;;;;;;;4.53;3.42;;;5.40;99.90;;;;;;5033218;28;20895;-77
2021/04/05 08:53:28;;;;;;;5.38;2.50;;;5.50;99.90;;;;;;5032326;28;20414;-77
2021/04/05 08:55:58;;;;;;;7.63;2.78;;;5.40;99.90;;;;;;5032136;28;20410;-79
2021/04/05 08:58:35;;;;;;;7.80;2.53;;;5.50;99.90;;;;;;5033052;28;20876;-77
2021/04/05 09:01:06;;;;;;;3.17;2.25;;;5.60;99.90;;;;;;5032229;28;20926;-75
2021/04/05 09:03:34;;;;;;;5.68;2.92;;;5.50;99.90;;;;;;5031099;28;20462;-76
2021/04/05 09:06:06;;;;;;;8.18;3.30;;;5.60;99.90;;;;;;5033524;28;20880;-78
2021/04/05 09:08:32;;;;;;;5.78;2.88;;;5.60;99.90;;;;;;5038286;28;20387;-77
2021/04/05 09:11:05;;;;;;;3.30;2.10;;;5.30;99.90;;;;;;5022951;28;20435;-76
2021/04/05 09:13:39;;;;;;;2.20;2.00;;;4.80;99.90;;;;;;5033038;28;20222;-76
2021/04/05 09:16:42;;;;;;;1.80;1.50;;;4.40;99.90;;;;;;5016155;28;20191;-75
2021/04/05 09:19:45;;;;;;;4.65;2.80;;;4.20;99.90;;;;;;4995552;28;20218;-76
2021/04/05 09:22:30;;;;;;;14.40;4.40;;;4.00;99.90;;;;;;5032486;28;20178;-77
2021/04/05 09:25:09;;;;;;;13.93;5.10;;;4.00;99.90;;;;;;5036965;28;20176;-78
2021/04/05 09:28:08;;;;;;;11.93;5.20;;;4.10;99.90;;;;;;5046018;28;20278;-77
2021/04/05 09:31:14;;;;;;;8.63;6.13;;;4.20;99.90;;;;;;5044438;28;20508;-76
2021/04/05 09:34:14;;;;;;;19.55;10.00;;;4.20;99.90;;;;;;5032338;28;20403;-77
2021/04/05 09:37:19;;;;;;;18.52;8.98;;;4.30;99.90;;;;;;5034122;28;20398;-77
2021/04/05 09:40:22;;;;;;;5.45;3.15;;;4.30;99.90;;;;;;5020950;28;20417;-76
2021/04/05 09:43:01;;;;;;;11.48;3.38;;;4.10;99.90;;;;;;5019402;28;20399;-77
2021/04/05 09:45:35;;;;;;;18.02;3.35;;;3.80;97.70;;;;;;5036625;28;20656;-76
2021/04/05 09:48:35;;;;;;;13.25;2.97;;;3.80;94.20;;;;;;5036955;28;20179;-76
2021/04/05 09:51:24;;;;;;;7.22;3.20;;;3.80;95.90;;;;;;5039710;28;20180;-76
2021/04/05 09:53:56;;;;;;;6.38;1.48;;;3.90;97.90;;;;;;5036786;28;20179;-76
2021/04/05 09:56:26;;;;;;;7.90;1.77;;;4.00;99.90;;;;;;5032678;28;20187;-76
2021/04/05 09:59:00;;;;;;;3.47;1.33;;;4.00;97.20;;;;;;5043950;28;20218;-76
2021/04/05 10:01:29;;;;;;;7.13;1.55;;;3.90;87.50;;;;;;5038421;28;20184;-76
2021/04/05 10:04:20;;;;;;;16.30;1.75;;;3.70;76.60;;;;;;5025771;28;20180;-78
2021/04/05 10:06:47;;;;;;;6.28;2.25;;;3.70;81.40;;;;;;5039561;28;20203;-77
2021/04/05 10:09:13;;;;;;;5.57;2.00;;;3.90;86.40;;;;;;5031754;28;20306;-76
2021/04/05 10:11:43;;;;;;;6.23;2.20;;;3.90;77.20;;;;;;5032098;28;20191;-78
2021/04/05 10:14:15;;;;;;;7.28;1.90;;;3.90;74.30;;;;;;5024059;28;20183;-78
2021/04/05 10:16:52;;;;;;;6.18;1.58;;;4.00;71.80;;;;;;5025295;28;20191;-78
2021/04/05 10:19:22;;;;;;;7.38;1.33;;;4.20;74.10;;;;;;5044370;28;20214;-79
2021/04/05 10:21:54;;;;;;;12.10;1.80;;;4.30;71.90;;;;;;5044319;28;20206;-77
2021/04/05 10:24:24;;;;;;;5.80;1.65;;;4.40;68.40;;;;;;5031979;28;20172;-77
2021/04/05 10:26:52;;;;;;;18.45;1.88;;;4.50;63.50;;;;;;5037393;28;20184;-76
2021/04/05 10:29:22;;;;;;;19.42;3.30;;;4.60;65.60;;;;;;5056460;28;20207;-76
2021/04/05 10:31:49;;;;;;;4.53;1.83;;;4.90;67.40;;;;;;5064276;28;20179;-78
2021/04/05 10:34:16;;;;;;;21.52;3.38;;;5.00;60.30;;;;;;5033168;28;20176;-77
2021/04/05 10:36:51;;;;;;;15.10;2.53;;;5.00;58.50;;;;;;5026189;28;20195;-78
2021/04/05 10:39:17;;;;;;;17.42;2.42;;;5.00;57.20;;;;;;5024834;28;20253;-79
2021/04/05 10:41:59;;;;;;;10.90;2.00;;;5.20;55.10;;;;;;5043164;28;20640;-76
2021/04/05 10:44:28;;;;;;;17.02;1.95;;;5.20;54.90;;;;;;5043354;28;20430;-78
2021/04/05 10:47:00;;;;;;;9.00;2.58;;;5.20;52.30;;;;;;5044066;28;20241;-79
2021/04/05 10:49:29;;;;;;;12.25;2.95;;;5.10;54.80;;;;;;5045692;28;20192;-78
2021/04/05 10:52:11;;;;;;;2.33;2.13;;;5.10;60.20;;;;;;5026817;28;20179;-77
2021/04/05 10:54:39;;;;;;;6.72;2.33;;;5.10;58.80;;;;;;5025180;28;20171;-78
2021/04/05 10:57:16;;;;;;;1.50;1.33;;;5.20;59.90;;;;;;5024140;28;20193;-78
2021/04/05 10:59:47;;;;;;;6.97;2.25;;;4.90;68.40;;;;;;5027636;28;20238;-77
2021/04/05 11:02:42;;;;;;;5.78;1.75;;;4.30;57.60;;;;;;5042291;28;20191;-77
2021/04/05 11:05:13;;;;;;;3.35;1.70;;;4.40;66.60;;;;;;5018774;28;20212;-77
2021/04/05 11:07:40;;;;;;;3.72;2.05;;;4.10;63.10;;;;;;5041708;28;20543;-76
2021/04/05 11:10:09;;;;;;;5.15;1.90;;;4.10;72.30;;;;;;5026191;28;20208;-77
2021/04/05 11:12:38;;;;;;;4.83;1.53;;;3.70;59.50;;;;;;5037478;28;20417;-78
2021/04/05 11:15:08;;;;;;;2.08;1.45;;;3.40;60.40;;;;;;5039152;28;20453;-79
2021/04/05 11:17:39;;;;;;;2.55;0.80;;;3.00;70.70;;;;;;5036123;28;20180;-77
2021/04/05 11:20:05;;;;;;;1.30;1.15;;;3.00;78.70;;;;;;5048271;28;20220;-75
2021/04/05 11:22:32;;;;;;;4.68;1.08;;;3.00;72.20;;;;;;5047950;28;20202;-77
2021/04/05 11:25:05;;;;;;;1.35;0.60;;;3.40;79.80;;;;;;5048987;28;20172;-75
2021/04/05 11:27:37;;;;;;;2.60;0.93;;;3.50;68.60;;;;;;5033810;28;20179;-77
2021/04/05 11:30:05;;;;;;;2.45;0.98;;;3.50;65.50;;;;;;5051967;28;20215;-76
2021/04/05 11:32:33;;;;;;;3.80;1.35;;;3.70;58.50;;;;;;5032106;28;20199;-77
2021/04/05 11:35:01;;;;;;;4.40;0.80;;;3.70;46.80;;;;;;5048313;28;20184;-75
2021/04/05 11:37:30;;;;;;;10.93;1.88;;;3.90;50.20;;;;;;5047407;28;20203;-77
2021/04/05 11:40:04;;;;;;;6.95;1.90;;;4.20;46.20;;;;;;5044485;28;20243;-77
2021/04/05 11:42:43;;;;;;;2.60;1.33;;;4.40;43.50;;;;;;5044872;28;20206;-76
2021/04/05 11:45:11;;;;;;;6.82;1.80;;;4.50;41.10;;;;;;5044798;28;20233;-77
2021/04/05 11:47:43;;;;;;;2.75;0.70;;;4.50;40.50;;;;;;5027971;28;20194;-76
2021/04/05 11:50:13;;;;;;;1.80;1.02;;;4.80;40.90;;;;;;5018709;28;20196;-77
2021/04/05 11:52:57;;;;;;;6.90;2.20;;;5.20;42.80;;;;;;5035373;28;20407;-73
2021/04/05 11:55:29;;;;;;;5.57;1.80;;;5.70;39.60;;;;;;5031077;28;20490;-76
2021/04/05 11:58:10;;;;;;;4.80;1.73;;;5.30;36.90;;;;;;5042107;28;20393;-79
2021/04/05 12:00:44;;;;;;;4.40;1.60;;;5.10;37.70;;;;;;5037384;28;20426;-77
2021/04/05 12:03:47;;;;;;;1.27;1.17;;;2.80;66.80;;;;;;5015926;28;20179;-76
2021/04/05 12:06:20;;;;;;;1.98;1.02;;;2.00;84.30;;;;;;4983983;28;20267;-75
2021/04/05 12:09:00;;;;;;;7.47;2.03;;;1.70;82.60;;;;;;5048282;28;20197;-77
2021/04/05 12:11:30;;;;;;;1.70;1.60;;;1.80;78.80;;;;;;5036430;28;20637;-77
2021/04/05 12:14:20;;;;;;;4.00;1.77;;;1.80;73.20;;;;;;5035998;28;20230;-77
2021/04/05 12:16:51;;;;;;;5.32;1.90;;;2.00;72.30;;;;;;5040644;28;20176;-76
2021/04/05 12:19:45;;;;;;;8.63;1.05;;;2.20;67.90;;;;;;5024947;28;20238;-76
2021/04/05 12:22:12;;;;;;;6.85;1.60;;;2.40;68.40;;;;;;5035973;28;20183;-76
2021/04/05 12:24:46;;;;;;;13.52;1.70;;;2.50;63.70;;;;;;5019859;28;20204;-77
2021/04/05 12:27:14;;;;;;;6.03;1.73;;;2.50;65.50;;;;;;5037970;28;20171;-76
2021/04/05 12:29:43;;;;;;;8.73;2.67;;;2.50;71.40;;;;;;5038924;28;20234;-77
2021/04/05 12:32:15;;;;;;;5.93;1.60;;;2.70;73.00;;;;;;5039729;28;20168;-76
2021/04/05 12:34:42;;;;;;;4.30;1.67;;;2.90;64.00;;;;;;5042404;28;20176;-76
2021/04/05 12:37:17;;;;;;;13.65;1.83;;;3.20;66.70;;;;;;5045062;28;20657;-78
2021/04/05 12:39:45;;;;;;;9.93;1.60;;;3.70;63.90;;;;;;5040195;28;20207;-76
2021/04/05 12:42:12;;;;;;;10.35;1.60;;;3.90;51.50;;;;;;5022280;28;20603;-77
2021/04/05 12:44:42;;;;;;;3.17;1.63;;;4.50;55.10;;;;;;5019026;28;20602;-76
2021/04/05 12:47:10;;;;;;;3.50;1.48;;;4.80;52.40;;;;;;5036547;28;20168;-77
2021/04/05 12:49:48;;;;;;;16.10;2.50;;;4.90;46.90;;;;;;5035482;28;20187;-75
2021/04/05 12:52:19;;;;;;;9.25;1.70;;;4.40;36.80;;;;;;5020526;28;20883;-76
2021/04/05 12:54:47;;;;;;;3.10;1.20;;;4.00;36.50;;;;;;5019158;28;20387;-77
2021/04/05 12:57:13;;;;;;;2.05;1.20;;;3.70;37.30;;;;;;5035045;28;20258;-76
2021/04/05 12:59:40;;;;;;;4.60;1.38;;;3.30;38.50;;;;;;5034247;28;20196;-76
2021/04/05 13:02:23;;;;;;;4.70;1.75;;;3.40;42.80;;;;;;5023901;28;20185;-76
2021/04/05 13:04:56;;;;;;;6.45;1.80;;;3.00;46.30;;;;;;5020065;28;20175;-76
2021/04/05 13:07:32;;;;;;;8.43;1.20;;;2.40;61.00;;;;;;5039390;28;20171;-77
2021/04/05 13:10:05;;;;;;;6.75;2.20;;;2.00;73.30;;;;;;5042309;28;20199;-76
2021/04/05 13:12:40;;;;;;;2.65;1.67;;;1.40;89.00;;;;;;5037200;28;20251;-77
2021/04/05 13:15:33;;;;;;;10.88;2.50;;;1.10;99.90;;;;;;5036330;28;20163;-76
2021/04/05 13:18:11;;;;;;;4.70;3.28;;;1.50;99.90;;;;;;5026299;28;20287;-76
2021/04/05 13:20:42;;;;;;;3.67;1.20;;;1.70;99.90;;;;;;5019361;28;20628;-77